Airfield :
LOGIN :

Register | Disclaimer

   EN    FR    IT 

 










Legend :    VFR   Marginal VFR   IFR   Intensive IFR   Very Intensive IFR
Visi :
Ceiling :
>= 8 km
>= 3000ft
5 to 8 km
1000 to 3000 ft
1500m to 5 km
500 to 1000 ft
800 to 1500m
200 to 500 ft
< 800m
< 200 ft
Symbols :   Thunderstorms  Fog  Heavy snow  Heavy precipitations  Wind > 20 kt
SIGMETs :     Misc.  Thunderstorms  Icing  Turbulence  Mountain Waves  Volcanic Ashes







- Airport Elevation : 412 ft
- IATA code : ORE
- Download approach charts


LFOJ - Orleans

CURRENT METAR :
  • 200930Z AUTO 21008KT 7000 OVC003 06/06 Q1024 BECMG BKN012

EXPIRED METARs :
  • 200900Z AUTO 20009KT 6000 OVC003 06/06 Q1023 NOSIG
  • 200830Z AUTO 19010KT 4900 BR OVC002 06/06 Q1023 BECMG 5000 BR
  • 200800Z AUTO 18010KT 2600 BR OVC002 06/06 Q1023 TEMPO VV/// BECMG 4000 BR
  • 200730Z AUTO 20006KT 1800 BR VV/// 06/06 Q1023 BECMG 4000 BR OVC004
  • 200700Z AUTO 20007KT 1400 1100 R25/2000U BR VV/// 06/06 Q1024 BECMG 0600 FG

TAF TAF LFOJ
Valid from the 20 at 09:00 until the 21 at 09:00 UTC


200800Z 2009/2109 19010KT 5000 BR OVC004
BECMG 2011/2013 25015KT 9000 NSW BKN012
PROB40
TEMPO 2013/2017 BKN016
BECMG 2020/2022 OVC005
BECMG 2022/2024 20008KT 3000 BR OVC002
TEMPO 2100/2107 0800 FG VV///
No reported NOTAMs for that airfield.



MET'MAP, your aeronautical weather chart ! - Copyright ORBIFLY December 2007 - Disclaimer

ORBIFLY MET'MAP TEAM :

Programming & Development : Alexandra Zaïnal
Concept & Development : Baudouin d'Aumeries
Co-Development & Prog : Marc-Olivier Méhu
Technical & hardware support : Manuel Goepfert

Contact : metmap@orbifly.com




SOURCES & CREDITS :

   NOAA